sensor_id;sensor_type;location;lat;lon;timestamp;pressure;altitude;pressure_sealevel;temperature;humidity
42067;BME280;27734;47.028;28.820;2023-04-30T00:00:36;100220.88;;;7.80;46.78
42067;BME280;27734;47.028;28.820;2023-04-30T00:03:24;100225.08;;;7.76;46.48
42067;BME280;27734;47.028;28.820;2023-04-30T00:05:53;100218.88;;;7.74;47.04
42067;BME280;27734;47.028;28.820;2023-04-30T00:08:21;100216.13;;;7.71;46.59
42067;BME280;27734;47.028;28.820;2023-04-30T00:10:50;100218.55;;;7.66;47.11
42067;BME280;27734;47.028;28.820;2023-04-30T00:13:19;100208.89;;;7.64;48.04
42067;BME280;27734;47.028;28.820;2023-04-30T00:15:47;100209.44;;;7.56;48.24
42067;BME280;27734;47.028;28.820;2023-04-30T00:18:16;100210.13;;;7.52;48.22
42067;BME280;27734;47.028;28.820;2023-04-30T00:20:44;100203.88;;;7.49;48.84
42067;BME280;27734;47.028;28.820;2023-04-30T00:23:13;100205.41;;;7.44;49.40
42067;BME280;27734;47.028;28.820;2023-04-30T00:25:41;100204.27;;;7.37;49.27
42067;BME280;27734;47.028;28.820;2023-04-30T00:28:10;100200.53;;;7.32;49.43
42067;BME280;27734;47.028;28.820;2023-04-30T00:30:38;100198.70;;;7.29;49.33
42067;BME280;27734;47.028;28.820;2023-04-30T00:33:07;100187.15;;;7.24;49.37
42067;BME280;27734;47.028;28.820;2023-04-30T00:35:36;100195.89;;;7.25;49.07
42067;BME280;27734;47.028;28.820;2023-04-30T00:38:04;100191.69;;;7.28;49.48
42067;BME280;27734;47.028;28.820;2023-04-30T00:40:34;100183.86;;;7.28;49.69
42067;BME280;27734;47.028;28.820;2023-04-30T00:43:03;100190.88;;;7.29;49.84
42067;BME280;27734;47.028;28.820;2023-04-30T00:45:31;100184.74;;;7.29;49.97
42067;BME280;27734;47.028;28.820;2023-04-30T00:48:00;100181.05;;;7.24;50.38
42067;BME280;27734;47.028;28.820;2023-04-30T00:50:29;100175.69;;;7.20;50.27
42067;BME280;27734;47.028;28.820;2023-04-30T00:52:58;100179.05;;;7.18;51.26
42067;BME280;27734;47.028;28.820;2023-04-30T00:55:28;100175.42;;;7.14;50.84
42067;BME280;27734;47.028;28.820;2023-04-30T00:57:56;100173.63;;;7.13;51.67
42067;BME280;27734;47.028;28.820;2023-04-30T01:00:26;100169.25;;;7.12;50.96
42067;BME280;27734;47.028;28.820;2023-04-30T01:02:56;100170.20;;;7.14;50.76
42067;BME280;27734;47.028;28.820;2023-04-30T01:05:25;100170.20;;;7.14;50.92
42067;BME280;27734;47.028;28.820;2023-04-30T01:07:54;100170.20;;;7.14;50.48
42067;BME280;27734;47.028;28.820;2023-04-30T01:10:27;100170.20;;;7.14;50.72
42067;BME280;27734;47.028;28.820;2023-04-30T01:13:04;100165.80;;;7.13;50.99
42067;BME280;27734;47.028;28.820;2023-04-30T01:15:37;100167.59;;;7.14;50.71
42067;BME280;27734;47.028;28.820;2023-04-30T01:18:14;100166.91;;;7.18;50.76
42067;BME280;27734;47.028;28.820;2023-04-30T01:20:48;100159.09;;;7.18;51.20
42067;BME280;27734;47.028;28.820;2023-04-30T01:23:36;100164.23;;;7.17;50.33
42067;BME280;27734;47.028;28.820;2023-04-30T01:26:12;100151.87;;;7.13;50.82
42067;BME280;27734;47.028;28.820;2023-04-30T01:28:43;100157.84;;;7.10;51.24
42067;BME280;27734;47.028;28.820;2023-04-30T01:31:18;100154.14;;;7.05;51.79
42067;BME280;27734;47.028;28.820;2023-04-30T01:33:46;100151.33;;;7.00;52.11
42067;BME280;27734;47.028;28.820;2023-04-30T01:36:32;100152.98;;;6.98;51.41
42067;BME280;27734;47.028;28.820;2023-04-30T01:39:41;100146.78;;;6.96;51.45
42067;BME280;27734;47.028;28.820;2023-04-30T01:42:20;100149.25;;;6.93;51.36
42067;BME280;27734;47.028;28.820;2023-04-30T01:45:01;100153.45;;;6.90;52.27
42067;BME280;27734;47.028;28.820;2023-04-30T01:47:37;100150.84;;;6.90;51.63
42067;BME280;27734;47.028;28.820;2023-04-30T01:50:18;100151.66;;;6.89;51.48
42067;BME280;27734;47.028;28.820;2023-04-30T01:52:51;100148.23;;;6.90;51.69
42067;BME280;27734;47.028;28.820;2023-04-30T01:55:23;100152.44;;;6.86;52.42
42067;BME280;27734;47.028;28.820;2023-04-30T01:57:57;100144.27;;;6.78;52.81
42067;BME280;27734;47.028;28.820;2023-04-30T02:00:27;100158.75;;;6.72;53.28
42067;BME280;27734;47.028;28.820;2023-04-30T02:02:57;100144.59;;;6.66;53.02
42067;BME280;27734;47.028;28.820;2023-04-30T02:05:25;100144.30;;;6.60;53.14
42067;BME280;27734;47.028;28.820;2023-04-30T02:07:54;100145.01;;;6.56;53.79
42067;BME280;27734;47.028;28.820;2023-04-30T02:10:24;100144.02;;;6.54;54.27
42067;BME280;27734;47.028;28.820;2023-04-30T02:12:53;100146.48;;;6.51;53.59
42067;BME280;27734;47.028;28.820;2023-04-30T02:15:22;100146.41;;;6.50;53.75
42067;BME280;27734;47.028;28.820;2023-04-30T02:17:51;100148.87;;;6.46;54.09
42067;BME280;27734;47.028;28.820;2023-04-30T02:20:19;100141.83;;;6.44;54.05
42067;BME280;27734;47.028;28.820;2023-04-30T02:22:48;100140.98;;;6.45;54.70
42067;BME280;27734;47.028;28.820;2023-04-30T02:25:17;100146.13;;;6.43;54.93
42067;BME280;27734;47.028;28.820;2023-04-30T02:27:45;100142.57;;;6.41;54.52
42067;BME280;27734;47.028;28.820;2023-04-30T02:30:14;100141.62;;;6.39;54.24
42067;BME280;27734;47.028;28.820;2023-04-30T02:32:42;100139.02;;;6.39;54.70
42067;BME280;27734;47.028;28.820;2023-04-30T02:35:11;100140.77;;;6.40;55.20
42067;BME280;27734;47.028;28.820;2023-04-30T02:37:39;100141.62;;;6.39;55.13
42067;BME280;27734;47.028;28.820;2023-04-30T02:40:10;100139.82;;;6.38;55.02
42067;BME280;27734;47.028;28.820;2023-04-30T02:42:39;100131.19;;;6.39;55.91
42067;BME280;27734;47.028;28.820;2023-04-30T02:45:09;100129.47;;;6.40;54.96
42067;BME280;27734;47.028;28.820;2023-04-30T02:47:37;100142.42;;;6.38;55.87
42067;BME280;27734;47.028;28.820;2023-04-30T02:50:08;100134.61;;;6.38;55.13
42067;BME280;27734;47.028;28.820;2023-04-30T02:52:37;100132.08;;;6.40;55.29
42067;BME280;27734;47.028;28.820;2023-04-30T02:55:07;100135.70;;;6.43;55.14
42067;BME280;27734;47.028;28.820;2023-04-30T02:57:39;100135.70;;;6.43;55.71
42067;BME280;27734;47.028;28.820;2023-04-30T03:00:10;100129.61;;;6.43;55.34
42067;BME280;27734;47.028;28.820;2023-04-30T03:02:39;100132.28;;;6.44;55.31
42067;BME280;27734;47.028;28.820;2023-04-30T03:05:08;100133.94;;;6.42;55.43
42067;BME280;27734;47.028;28.820;2023-04-30T03:07:37;100134.89;;;6.44;55.53
42067;BME280;27734;47.028;28.820;2023-04-30T03:10:08;100130.49;;;6.43;55.33
42067;BME280;27734;47.028;28.820;2023-04-30T03:12:37;100124.40;;;6.43;55.59
42067;BME280;27734;47.028;28.820;2023-04-30T03:15:08;100130.27;;;6.39;55.19
42067;BME280;27734;47.028;28.820;2023-04-30T03:17:37;100136.41;;;6.39;55.19
42067;BME280;27734;47.028;28.820;2023-04-30T03:20:08;100127.67;;;6.39;55.57
42067;BME280;27734;47.028;28.820;2023-04-30T03:22:37;100129.39;;;6.38;55.64
42067;BME280;27734;47.028;28.820;2023-04-30T03:25:07;100132.08;;;6.40;55.85
42067;BME280;27734;47.028;28.820;2023-04-30T03:27:35;100132.14;;;6.41;55.75
42067;BME280;27734;47.028;28.820;2023-04-30T03:30:06;100136.55;;;6.42;55.44
42067;BME280;27734;47.028;28.820;2023-04-30T03:32:35;100135.70;;;6.43;55.64
42067;BME280;27734;47.028;28.820;2023-04-30T03:35:04;100139.30;;;6.45;55.79
42067;BME280;27734;47.028;28.820;2023-04-30T03:37:33;100141.97;;;6.47;55.70
42067;BME280;27734;47.028;28.820;2023-04-30T03:40:02;100141.27;;;6.51;55.56
42067;BME280;27734;47.028;28.820;2023-04-30T03:42:31;100141.34;;;6.53;55.15
42067;BME280;27734;47.028;28.820;2023-04-30T03:45:00;100137.19;;;6.56;55.32
42067;BME280;27734;47.028;28.820;2023-04-30T03:47:28;100136.55;;;6.62;54.64
42067;BME280;27734;47.028;28.820;2023-04-30T03:49:57;100143.70;;;6.66;55.40
42067;BME280;27734;47.028;28.820;2023-04-30T03:52:25;100144.66;;;6.68;55.17
42067;BME280;27734;47.028;28.820;2023-04-30T03:54:54;100142.96;;;6.69;54.94
42067;BME280;27734;47.028;28.820;2023-04-30T03:57:23;100138.63;;;6.69;55.14
42067;BME280;27734;47.028;28.820;2023-04-30T03:59:51;100143.03;;;6.70;54.95
42067;BME280;27734;47.028;28.820;2023-04-30T04:02:20;100137.89;;;6.72;54.75
42067;BME280;27734;47.028;28.820;2023-04-30T04:04:49;100138.84;;;6.74;54.80
42067;BME280;27734;47.028;28.820;2023-04-30T04:07:18;100144.12;;;6.75;54.93
42067;BME280;27734;47.028;28.820;2023-04-30T04:09:47;100140.77;;;6.78;54.54
42067;BME280;27734;47.028;28.820;2023-04-30T04:12:15;100146.06;;;6.79;54.94
42067;BME280;27734;47.028;28.820;2023-04-30T04:14:44;100149.55;;;6.80;55.08
42067;BME280;27734;47.028;28.820;2023-04-30T04:17:12;100140.98;;;6.82;54.80
42067;BME280;27734;47.028;28.820;2023-04-30T04:19:41;100146.20;;;6.82;54.75
42067;BME280;27734;47.028;28.820;2023-04-30T04:22:10;100147.15;;;6.84;54.93
42067;BME280;27734;47.028;28.820;2023-04-30T04:24:38;100142.88;;;6.87;54.56
42067;BME280;27734;47.028;28.820;2023-04-30T04:27:07;100138.69;;;6.90;54.50
42067;BME280;27734;47.028;28.820;2023-04-30T04:29:36;100143.97;;;6.92;54.46
42067;BME280;27734;47.028;28.820;2023-04-30T04:32:05;100142.34;;;6.94;54.33
42067;BME280;27734;47.028;28.820;2023-04-30T04:34:33;100147.62;;;6.95;54.38
42067;BME280;27734;47.028;28.820;2023-04-30T04:37:02;100146.04;;;6.99;54.72
42067;BME280;27734;47.028;28.820;2023-04-30T04:39:31;100144.38;;;7.01;54.34
42067;BME280;27734;47.028;28.820;2023-04-30T04:41:59;100141.97;;;7.06;54.61
42067;BME280;27734;47.028;28.820;2023-04-30T04:44:29;100139.56;;;7.10;54.08
42067;BME280;27734;47.028;28.820;2023-04-30T04:46:58;100146.85;;;7.17;53.98
42067;BME280;27734;47.028;28.820;2023-04-30T04:49:26;100137.50;;;7.23;54.23
42067;BME280;27734;47.028;28.820;2023-04-30T04:51:55;100131.66;;;7.28;54.28
42067;BME280;27734;47.028;28.820;2023-04-30T04:54:23;100136.27;;;7.34;54.56
42067;BME280;27734;47.028;28.820;2023-04-30T04:56:52;100133.06;;;7.41;54.33
42067;BME280;27734;47.028;28.820;2023-04-30T04:59:20;100135.94;;;7.47;54.47
42067;BME280;27734;47.028;28.820;2023-04-30T05:01:49;100132.64;;;7.51;54.29
42067;BME280;27734;47.028;28.820;2023-04-30T05:04:18;100141.68;;;7.60;54.60
42067;BME280;27734;47.028;28.820;2023-04-30T05:06:46;100131.42;;;7.64;54.26
42067;BME280;27734;47.028;28.820;2023-04-30T05:09:15;100137.03;;;7.73;54.24
42067;BME280;27734;47.028;28.820;2023-04-30T05:11:44;100131.30;;;7.82;54.02
42067;BME280;27734;47.028;28.820;2023-04-30T05:14:15;100131.62;;;7.90;54.59
42067;BME280;27734;47.028;28.820;2023-04-30T05:16:44;100129.28;;;7.98;54.21
42067;BME280;27734;47.028;28.820;2023-04-30T05:19:13;100129.65;;;8.07;54.33
42067;BME280;27734;47.028;28.820;2023-04-30T05:21:41;100125.64;;;8.15;54.32
42067;BME280;27734;47.028;28.820;2023-04-30T05:24:10;100128.56;;;8.23;54.38
42067;BME280;27734;47.028;28.820;2023-04-30T05:26:38;100122.78;;;8.32;54.62
42067;BME280;27734;47.028;28.820;2023-04-30T05:29:07;100128.36;;;8.41;54.32
42067;BME280;27734;47.028;28.820;2023-04-30T05:31:37;100136.53;;;8.49;54.39
42067;BME280;27734;47.028;28.820;2023-04-30T05:34:05;100132.48;;;8.57;54.33
42067;BME280;27734;47.028;28.820;2023-04-30T05:36:34;100131.18;;;8.68;53.82
42067;BME280;27734;47.028;28.820;2023-04-30T05:39:03;100126.34;;;8.79;54.23
42067;BME280;27734;47.028;28.820;2023-04-30T05:41:32;100126.62;;;8.87;54.44
42067;BME280;27734;47.028;28.820;2023-04-30T05:44:00;100129.61;;;8.97;54.13
42067;BME280;27734;47.028;28.820;2023-04-30T05:46:31;100128.40;;;9.12;53.99
42067;BME280;27734;47.028;28.820;2023-04-30T05:49:00;100123.59;;;9.24;54.07
42067;BME280;27734;47.028;28.820;2023-04-30T05:51:28;100116.17;;;9.37;53.93
42067;BME280;27734;47.028;28.820;2023-04-30T05:53:57;100128.10;;;9.54;54.31
42067;BME280;27734;47.028;28.820;2023-04-30T05:56:27;100123.38;;;9.69;53.47
42067;BME280;27734;47.028;28.820;2023-04-30T05:58:55;100115.92;;;9.82;53.94
42067;BME280;27734;47.028;28.820;2023-04-30T06:01:24;100123.27;;;9.94;53.70
42067;BME280;27734;47.028;28.820;2023-04-30T06:03:55;100120.27;;;10.08;53.44
42067;BME280;27734;47.028;28.820;2023-04-30T06:06:25;100122.41;;;10.22;52.85
42067;BME280;27734;47.028;28.820;2023-04-30T06:08:53;100116.74;;;10.35;53.26
42067;BME280;27734;47.028;28.820;2023-04-30T06:11:22;100113.75;;;10.52;52.09
42067;BME280;27734;47.028;28.820;2023-04-30T06:13:52;100117.66;;;10.66;50.42
42067;BME280;27734;47.028;28.820;2023-04-30T06:16:21;100117.23;;;10.83;51.65
42067;BME280;27734;47.028;28.820;2023-04-30T06:18:49;100115.78;;;10.92;51.40
42067;BME280;27734;47.028;28.820;2023-04-30T06:21:18;100112.59;;;11.04;51.13
42067;BME280;27734;47.028;28.820;2023-04-30T06:23:47;100119.97;;;11.18;50.19
42067;BME280;27734;47.028;28.820;2023-04-30T06:26:16;100120.27;;;11.28;51.13
42067;BME280;27734;47.028;28.820;2023-04-30T06:28:44;100119.55;;;11.36;50.46
42067;BME280;27734;47.028;28.820;2023-04-30T06:31:13;100125.97;;;11.45;50.87
42067;BME280;27734;47.028;28.820;2023-04-30T06:33:42;100125.41;;;11.59;50.73
42067;BME280;27734;47.028;28.820;2023-04-30T06:36:10;100113.30;;;11.65;50.60
42067;BME280;27734;47.028;28.820;2023-04-30T06:38:39;100121.39;;;11.73;50.29
42067;BME280;27734;47.028;28.820;2023-04-30T06:41:09;100114.52;;;11.78;49.56
42067;BME280;27734;47.028;28.820;2023-04-30T06:43:37;100111.25;;;11.88;50.19
42067;BME280;27734;47.028;28.820;2023-04-30T06:46:06;100110.70;;;12.00;48.86
42067;BME280;27734;47.028;28.820;2023-04-30T06:48:34;100119.65;;;12.09;49.39
42067;BME280;27734;47.028;28.820;2023-04-30T06:51:03;100111.02;;;12.14;49.55
42067;BME280;27734;47.028;28.820;2023-04-30T06:53:32;100109.38;;;12.19;49.62
42067;BME280;27734;47.028;28.820;2023-04-30T06:56:00;100107.70;;;12.23;49.31
42067;BME280;27734;47.028;28.820;2023-04-30T06:58:30;100104.25;;;12.26;49.31
42067;BME280;27734;47.028;28.820;2023-04-30T07:00:59;100103.41;;;12.27;49.08
42067;BME280;27734;47.028;28.820;2023-04-30T07:03:28;100101.70;;;12.29;48.28
42067;BME280;27734;47.028;28.820;2023-04-30T07:05:56;100109.55;;;12.27;47.35
42067;BME280;27734;47.028;28.820;2023-04-30T07:08:25;100098.12;;;12.25;48.13
42067;BME280;27734;47.028;28.820;2023-04-30T07:10:53;100108.61;;;12.23;48.13
42067;BME280;27734;47.028;28.820;2023-04-30T07:13:22;100099.80;;;12.23;47.74
42067;BME280;27734;47.028;28.820;2023-04-30T07:15:51;100091.95;;;12.25;48.05
42067;BME280;27734;47.028;28.820;2023-04-30T07:18:19;100104.33;;;12.29;47.75
42067;BME280;27734;47.028;28.820;2023-04-30T07:20:48;100098.36;;;12.36;47.39
42067;BME280;27734;47.028;28.820;2023-04-30T07:23:16;100090.70;;;12.47;47.44
42067;BME280;27734;47.028;28.820;2023-04-30T07:25:45;100088.30;;;12.57;47.47
42067;BME280;27734;47.028;28.820;2023-04-30T07:28:14;100092.00;;;12.67;46.70
42067;BME280;27734;47.028;28.820;2023-04-30T07:30:42;100098.23;;;12.72;46.70
42067;BME280;27734;47.028;28.820;2023-04-30T07:33:12;100094.16;;;12.88;45.23
42067;BME280;27734;47.028;28.820;2023-04-30T07:35:40;100087.70;;;13.17;45.62
42067;BME280;27734;47.028;28.820;2023-04-30T07:38:09;100101.33;;;13.41;44.54
42067;BME280;27734;47.028;28.820;2023-04-30T07:40:37;100090.06;;;13.50;44.65
42067;BME280;27734;47.028;28.820;2023-04-30T07:43:06;100076.25;;;13.63;45.10
42067;BME280;27734;47.028;28.820;2023-04-30T07:45:35;100084.40;;;13.80;44.24
42067;BME280;27734;47.028;28.820;2023-04-30T07:48:04;100074.06;;;13.94;42.17
42067;BME280;27734;47.028;28.820;2023-04-30T07:50:33;100088.55;;;14.21;42.51
42067;BME280;27734;47.028;28.820;2023-04-30T07:53:01;100084.47;;;14.45;41.48
42067;BME280;27734;47.028;28.820;2023-04-30T07:55:30;100086.41;;;14.60;41.53
42067;BME280;27734;47.028;28.820;2023-04-30T07:57:58;100079.47;;;14.63;39.01
42067;BME280;27734;47.028;28.820;2023-04-30T08:00:29;100086.30;;;14.52;38.92
42067;BME280;27734;47.028;28.820;2023-04-30T08:02:58;100085.47;;;14.54;39.55
42067;BME280;27734;47.028;28.820;2023-04-30T08:05:27;100092.63;;;14.60;40.04
42067;BME280;27734;47.028;28.820;2023-04-30T08:07:56;100098.69;;;14.56;38.32
42067;BME280;27734;47.028;28.820;2023-04-30T08:10:24;100098.53;;;14.44;39.13
42067;BME280;27734;47.028;28.820;2023-04-30T08:12:53;100090.71;;;14.51;40.86
42067;BME280;27734;47.028;28.820;2023-04-30T08:15:22;100100.31;;;14.45;40.25
42067;BME280;27734;47.028;28.820;2023-04-30T08:17:50;100088.78;;;14.39;39.54
42067;BME280;27734;47.028;28.820;2023-04-30T08:20:19;100104.64;;;14.41;40.05
42067;BME280;27734;47.028;28.820;2023-04-30T08:22:50;100108.08;;;14.34;38.87
42067;BME280;27734;47.028;28.820;2023-04-30T08:25:18;100081.58;;;14.26;37.48
42067;BME280;27734;47.028;28.820;2023-04-30T08:27:47;100086.81;;;14.23;38.75
42067;BME280;27734;47.028;28.820;2023-04-30T08:30:15;100087.78;;;14.30;39.05
42067;BME280;27734;47.028;28.820;2023-04-30T08:32:44;100095.78;;;14.36;38.88
42067;BME280;27734;47.028;28.820;2023-04-30T08:35:12;100080.23;;;14.58;37.39
42067;BME280;27734;47.028;28.820;2023-04-30T08:37:41;100081.37;;;14.77;38.50
42067;BME280;27734;47.028;28.820;2023-04-30T08:40:11;100078.05;;;14.93;35.80
42067;BME280;27734;47.028;28.820;2023-04-30T08:42:45;100083.63;;;15.21;36.53
42067;BME280;27734;47.028;28.820;2023-04-30T08:45:14;100091.78;;;15.47;34.28
42067;BME280;27734;47.028;28.820;2023-04-30T08:47:43;100083.08;;;15.57;35.20
42067;BME280;27734;47.028;28.820;2023-04-30T08:50:12;100076.98;;;15.64;33.85
42067;BME280;27734;47.028;28.820;2023-04-30T08:52:41;100077.05;;;15.72;35.31
42067;BME280;27734;47.028;28.820;2023-04-30T08:55:11;100084.08;;;15.73;32.92
42067;BME280;27734;47.028;28.820;2023-04-30T08:57:39;100078.90;;;15.83;35.74
42067;BME280;27734;47.028;28.820;2023-04-30T09:00:10;100074.41;;;15.74;34.06
42067;BME280;27734;47.028;28.820;2023-04-30T09:02:40;100080.42;;;15.56;33.28
42067;BME280;27734;47.028;28.820;2023-04-30T09:05:11;100085.59;;;15.43;34.30
42067;BME280;27734;47.028;28.820;2023-04-30T09:07:41;100082.82;;;15.30;35.58
42067;BME280;27734;47.028;28.820;2023-04-30T09:10:17;100081.98;;;15.34;35.10
42067;BME280;27734;47.028;28.820;2023-04-30T09:12:58;100072.34;;;15.40;33.95
42067;BME280;27734;47.028;28.820;2023-04-30T09:15:27;100066.32;;;15.55;33.81
42067;BME280;27734;47.028;28.820;2023-04-30T09:18:07;100059.37;;;15.68;34.40
42067;BME280;27734;47.028;28.820;2023-04-30T09:20:36;100066.53;;;15.77;34.11
42067;BME280;27734;47.028;28.820;2023-04-30T09:23:07;100065.64;;;15.78;33.45
42067;BME280;27734;47.028;28.820;2023-04-30T09:25:40;100085.08;;;15.80;34.20
42067;BME280;27734;47.028;28.820;2023-04-30T09:28:10;100073.50;;;15.73;34.76
42067;BME280;27734;47.028;28.820;2023-04-30T09:30:39;100056.63;;;15.56;34.77
42067;BME280;27734;47.028;28.820;2023-04-30T09:33:08;100060.16;;;15.58;34.75
42067;BME280;27734;47.028;28.820;2023-04-30T09:35:39;100058.50;;;15.69;34.63
42067;BME280;27734;47.028;28.820;2023-04-30T09:38:25;100069.18;;;15.81;34.05
42067;BME280;27734;47.028;28.820;2023-04-30T09:40:54;100056.94;;;15.93;33.33
42067;BME280;27734;47.028;28.820;2023-04-30T09:43:23;100059.66;;;16.04;32.96
42067;BME280;27734;47.028;28.820;2023-04-30T09:45:51;100057.96;;;16.16;33.47
42067;BME280;27734;47.028;28.820;2023-04-30T09:48:22;100041.23;;;16.22;33.32
42067;BME280;27734;47.028;28.820;2023-04-30T09:50:51;100042.16;;;16.32;33.48
42067;BME280;27734;47.028;28.820;2023-04-30T09:53:20;100043.95;;;16.42;33.42
42067;BME280;27734;47.028;28.820;2023-04-30T09:55:50;100038.69;;;16.48;32.22
42067;BME280;27734;47.028;28.820;2023-04-30T09:58:19;100061.63;;;16.45;30.85
42067;BME280;27734;47.028;28.820;2023-04-30T10:00:50;100049.27;;;16.45;31.81
42067;BME280;27734;47.028;28.820;2023-04-30T10:03:21;100032.48;;;16.42;32.41
42067;BME280;27734;47.028;28.820;2023-04-30T10:05:51;100039.53;;;16.37;32.21
42067;BME280;27734;47.028;28.820;2023-04-30T10:08:23;100046.55;;;16.24;32.90
42067;BME280;27734;47.028;28.820;2023-04-30T10:10:58;100052.69;;;16.20;32.92
42067;BME280;27734;47.028;28.820;2023-04-30T10:13:27;100040.29;;;16.14;32.00
42067;BME280;27734;47.028;28.820;2023-04-30T10:16:03;100041.27;;;16.33;33.21
42067;BME280;27734;47.028;28.820;2023-04-30T10:18:38;100050.23;;;16.58;33.08
42067;BME280;27734;47.028;28.820;2023-04-30T10:21:08;100037.05;;;16.77;32.36
42067;BME280;27734;47.028;28.820;2023-04-30T10:23:39;100039.75;;;16.94;30.08
42067;BME280;27734;47.028;28.820;2023-04-30T10:26:10;100038.02;;;17.00;30.39
42067;BME280;27734;47.028;28.820;2023-04-30T10:28:39;100039.78;;;17.11;30.78
42067;BME280;27734;47.028;28.820;2023-04-30T10:31:08;100038.06;;;17.23;30.45
42067;BME280;27734;47.028;28.820;2023-04-30T10:33:44;100038.94;;;17.29;29.77
42067;BME280;27734;47.028;28.820;2023-04-30T10:36:23;100037.16;;;17.28;30.69
42067;BME280;27734;47.028;28.820;2023-04-30T10:38:54;100046.90;;;17.35;29.45
42067;BME280;27734;47.028;28.820;2023-04-30T10:41:26;100046.02;;;17.31;29.91
42067;BME280;27734;47.028;28.820;2023-04-30T10:43:58;100046.90;;;17.35;29.53
42067;BME280;27734;47.028;28.820;2023-04-30T10:46:28;100057.48;;;17.15;29.61
42067;BME280;27734;47.028;28.820;2023-04-30T10:48:57;100061.89;;;17.10;30.07
42067;BME280;27734;47.028;28.820;2023-04-30T10:51:44;100062.78;;;17.16;30.85
42067;BME280;27734;47.028;28.820;2023-04-30T10:54:15;100051.33;;;17.30;31.13
42067;BME280;27734;47.028;28.820;2023-04-30T10:56:45;100049.54;;;17.25;30.01
42067;BME280;27734;47.028;28.820;2023-04-30T10:59:14;100047.77;;;17.31;30.97
42067;BME280;27734;47.028;28.820;2023-04-30T11:01:57;100046.90;;;17.32;30.87
42067;BME280;27734;47.028;28.820;2023-04-30T11:04:26;100051.31;;;17.20;30.11
42067;BME280;27734;47.028;28.820;2023-04-30T11:07:06;100038.05;;;17.17;30.68
42067;BME280;27734;47.028;28.820;2023-04-30T11:09:37;100060.98;;;17.07;30.18
42067;BME280;27734;47.028;28.820;2023-04-30T11:12:11;100060.99;;;17.11;30.39
42067;BME280;27734;47.028;28.820;2023-04-30T11:14:42;100053.94;;;17.10;30.60
42067;BME280;27734;47.028;28.820;2023-04-30T11:17:20;100056.59;;;17.11;31.07
42067;BME280;27734;47.028;28.820;2023-04-30T11:19:50;100062.77;;;17.10;30.49
42067;BME280;27734;47.028;28.820;2023-04-30T11:22:22;100079.51;;;16.97;30.08
42067;BME280;27734;47.028;28.820;2023-04-30T11:25:02;100068.88;;;16.87;29.97
42067;BME280;27734;47.028;28.820;2023-04-30T11:27:32;100070.61;;;16.82;30.40
42067;BME280;27734;47.028;28.820;2023-04-30T11:30:03;100067.09;;;16.82;30.72
42067;BME280;27734;47.028;28.820;2023-04-30T11:32:38;100073.25;;;16.79;30.37
42067;BME280;27734;47.028;28.820;2023-04-30T11:35:08;100067.05;;;16.74;30.91
42067;BME280;27734;47.028;28.820;2023-04-30T11:37:38;100058.25;;;16.77;30.51
42067;BME280;27734;47.028;28.820;2023-04-30T11:40:09;100053.84;;;16.83;31.00
42067;BME280;27734;47.028;28.820;2023-04-30T11:42:39;100059.22;;;16.97;31.00
42067;BME280;27734;47.028;28.820;2023-04-30T11:45:10;100061.88;;;17.02;30.73
42067;BME280;27734;47.028;28.820;2023-04-30T11:47:43;100066.26;;;16.97;30.07
42067;BME280;27734;47.028;28.820;2023-04-30T11:50:13;100059.21;;;16.96;29.73
42067;BME280;27734;47.028;28.820;2023-04-30T11:52:47;100066.27;;;16.98;30.29
42067;BME280;27734;47.028;28.820;2023-04-30T11:55:17;100059.22;;;17.00;29.48
42067;BME280;27734;47.028;28.820;2023-04-30T11:57:47;100063.63;;;17.03;29.66
42067;BME280;27734;47.028;28.820;2023-04-30T12:00:18;100067.20;;;17.11;29.71
42067;BME280;27734;47.028;28.820;2023-04-30T12:02:48;100066.31;;;17.18;29.93
42067;BME280;27734;47.028;28.820;2023-04-30T12:05:19;100064.56;;;17.16;29.78
42067;BME280;27734;47.028;28.820;2023-04-30T12:07:49;100069.84;;;17.05;29.10
42067;BME280;27734;47.028;28.820;2023-04-30T12:10:19;100063.60;;;16.94;29.17
42067;BME280;27734;47.028;28.820;2023-04-30T12:12:49;100066.27;;;17.03;29.52
42067;BME280;27734;47.028;28.820;2023-04-30T12:15:19;100068.92;;;17.01;29.54
42067;BME280;27734;47.028;28.820;2023-04-30T12:17:49;100071.56;;;17.00;30.01
42067;BME280;27734;47.028;28.820;2023-04-30T12:20:19;100060.98;;;17.07;29.81
42067;BME280;27734;47.028;28.820;2023-04-30T12:22:49;100070.70;;;17.02;29.33
42067;BME280;27734;47.028;28.820;2023-04-30T12:25:19;100072.47;;;17.00;29.63
42067;BME280;27734;47.028;28.820;2023-04-30T12:27:49;100063.62;;;17.00;29.48
42067;BME280;27734;47.028;28.820;2023-04-30T12:30:20;100053.02;;;17.03;29.45
42067;BME280;27734;47.028;28.820;2023-04-30T12:32:50;100068.03;;;16.93;28.23
42067;BME280;27734;47.028;28.820;2023-04-30T12:35:20;100057.42;;;16.90;27.96
42067;BME280;27734;47.028;28.820;2023-04-30T12:37:50;100055.65;;;16.94;28.49
42067;BME280;27734;47.028;28.820;2023-04-30T12:40:20;100051.27;;;16.97;28.59
42067;BME280;27734;47.028;28.820;2023-04-30T12:42:49;100058.32;;;17.01;28.79
42067;BME280;27734;47.028;28.820;2023-04-30T12:45:45;100058.31;;;16.98;28.20
42067;BME280;27734;47.028;28.820;2023-04-30T12:48:14;100058.31;;;16.98;28.63
42067;BME280;27734;47.028;28.820;2023-04-30T12:50:47;100048.60;;;16.93;28.37
42067;BME280;27734;47.028;28.820;2023-04-30T12:53:16;100065.40;;;17.01;28.74
42067;BME280;27734;47.028;28.820;2023-04-30T12:56:08;100045.05;;;16.92;28.60
42067;BME280;27734;47.028;28.820;2023-04-30T12:58:37;100034.45;;;16.92;28.48
42067;BME280;27734;47.028;28.820;2023-04-30T13:01:10;100048.54;;;16.83;28.61